Hovedside
METAR-TAF:

METAR-TAF

Lufthavner :

Jaya Pura, Indonesia

breddegrad: 02-34-37S, lengdegrad: 140-30-58E, høyde over havet: 88 m

Gjeldene værobservasjon

Denne rapporten ble laget for 36 minutter siden, klokken 09:00 UTC
Vind 1 kt fra skiftende retning
Temperatur 26°C
Luftfuktighet 94%
Trykk 1007 hPa
Sikt 10 km eller mer
Få skyer i en høyde av 1300 ft

METAR: WAJJ 190900Z VRB01KT 9999 FEW013 26/25 Q1007 RMK CB AT SW

Tid: 16:36 (09:36 UTC)


TAF: fraværende

Værobservasjoner og værvarsel for over 4000 flyplasser (METAR- og TAF-rapporter).

Tilgjengelige stasjoner er representert av de røde og gule prikkene på kartet.

Hold musepekeren over prikken for å se navnet på stasjonen.

Klikk så for å se værobservasjoner og -varsler.

For å forandre kartet kan du klikke på den grønne knappen med svart kryss for å zoome inn, på den grønne knappen med strek for å zoome ut, eller på de grønne pilene for å se tilstøtende kart.


METAR-TAF: